createdAt,value
2022-10-07T00:00:52.120Z,102513.72
2022-10-07T00:06:02.576Z,102512.66
2022-10-07T00:11:08.280Z,102512.41
2022-10-07T00:16:17.415Z,102508.34
2022-10-07T00:21:21.086Z,102498.41
2022-10-07T00:26:26.136Z,102494.16
2022-10-07T00:31:33.110Z,102474.47
2022-10-07T00:36:38.975Z,102465.66
2022-10-07T00:41:44.072Z,102455.19
2022-10-07T00:46:48.628Z,102480.38
2022-10-07T00:51:52.941Z,102484.97
2022-10-07T00:56:58.981Z,102464.97
2022-10-07T01:02:04.316Z,102469.84
2022-10-07T01:07:06.945Z,102464.47
2022-10-07T01:12:18.192Z,102455.50
2022-10-07T01:17:28.638Z,102446.50
2022-10-07T01:22:40.824Z,102416.41
2022-10-07T01:27:49.515Z,102436.22
2022-10-07T01:32:59.100Z,102432.13
2022-10-07T01:38:07.313Z,102423.56
2022-10-07T01:43:16.879Z,102423.00
2022-10-07T01:48:19.598Z,102389.38
2022-10-07T01:53:37.692Z,102409.91
2022-10-07T01:59:01.575Z,102406.38
2022-10-07T02:04:22.685Z,102401.22
2022-10-07T02:09:33.470Z,102402.19
2022-10-07T02:14:44.257Z,102399.88
2022-10-07T02:19:53.004Z,102393.25
2022-10-07T02:24:58.974Z,102391.16
2022-10-07T02:30:07.613Z,102374.72
2022-10-07T02:35:16.263Z,102375.91
2022-10-07T02:40:19.588Z,102371.53
2022-10-07T02:45:30.214Z,102356.56
2022-10-07T02:50:41.003Z,102350.03
2022-10-07T02:55:45.967Z,102342.72
2022-10-07T03:00:55.391Z,102341.22
2022-10-07T03:05:58.549Z,102336.16
2022-10-07T03:11:01.708Z,102340.13
2022-10-07T03:16:07.482Z,102334.44
2022-10-07T03:21:10.124Z,102332.22
2022-10-07T03:26:13.229Z,102310.88
2022-10-07T03:31:17.348Z,102313.66
2022-10-07T03:36:25.067Z,102312.91
2022-10-07T03:41:27.800Z,102298.75
2022-10-07T03:46:35.098Z,102304.63
2022-10-07T03:51:37.778Z,102303.78
2022-10-07T03:56:42.637Z,102309.25
2022-10-07T04:01:47.054Z,102293.44
2022-10-07T04:06:49.677Z,102297.75
2022-10-07T04:11:52.340Z,102282.88
2022-10-07T04:16:57.284Z,102286.50
2022-10-07T04:22:01.310Z,102275.59
2022-10-07T04:27:05.931Z,102280.53
2022-10-07T04:32:10.059Z,102280.41
2022-10-07T04:37:13.405Z,102281.16
2022-10-07T04:42:30.576Z,102283.75
2022-10-07T04:47:35.399Z,102282.03
2022-10-07T04:52:40.513Z,102275.00
2022-10-07T04:57:43.833Z,102266.06
2022-10-07T05:02:50.385Z,102268.53
2022-10-07T05:07:55.332Z,102272.09
2022-10-07T05:13:01.152Z,102254.47
2022-10-07T05:18:05.871Z,102246.34
2022-10-07T05:23:08.484Z,102241.06
2022-10-07T05:28:11.576Z,102247.81
2022-10-07T05:33:17.327Z,102240.88
2022-10-07T05:38:20.003Z,102241.84
2022-10-07T05:43:23.108Z,102227.75
2022-10-07T05:48:28.890Z,102228.03
2022-10-07T05:53:32.606Z,102233.44
2022-10-07T05:58:36.722Z,102228.03
2022-10-07T06:03:40.974Z,102181.50
2022-10-07T06:08:43.871Z,102225.75
2022-10-07T06:13:49.280Z,102228.22
2022-10-07T06:18:54.736Z,102225.28
2022-10-07T06:23:59.736Z,102221.53
2022-10-07T06:29:07.268Z,102217.66
2022-10-07T06:34:11.258Z,102219.63
2022-10-07T06:39:14.141Z,102225.25
2022-10-07T06:44:18.656Z,102217.19
2022-10-07T06:49:22.932Z,102219.50
2022-10-07T06:54:26.690Z,102218.09
2022-10-07T06:59:29.876Z,102222.31
2022-10-07T07:04:42.465Z,102221.50
2022-10-07T07:09:45.626Z,102205.47
2022-10-07T07:14:48.260Z,102210.94
2022-10-07T07:19:56.365Z,102219.06
2022-10-07T07:24:59.022Z,102208.31
2022-10-07T07:30:01.999Z,102210.53
2022-10-07T07:35:09.541Z,102214.38
2022-10-07T07:40:12.353Z,102213.16
2022-10-07T07:45:15.876Z,102215.03
2022-10-07T07:50:22.193Z,102208.59
2022-10-07T07:55:24.809Z,102212.53
2022-10-07T08:00:27.799Z,102203.91
2022-10-07T08:05:39.921Z,102219.03
2022-10-07T08:10:42.840Z,102215.59
2022-10-07T08:15:45.776Z,102210.69
2022-10-07T08:20:58.460Z,102216.16
2022-10-07T08:26:02.944Z,102205.31
2022-10-07T08:31:08.050Z,102202.75
2022-10-07T08:36:15.475Z,102190.50
2022-10-07T08:41:31.926Z,102156.94
2022-10-07T08:46:38.946Z,102185.44
2022-10-07T08:51:48.282Z,102175.78
2022-10-07T08:56:50.908Z,102174.16
2022-10-07T09:02:11.814Z,102160.88
2022-10-07T09:07:19.930Z,102153.75
2022-10-07T09:12:26.375Z,102151.44
2022-10-07T09:17:35.272Z,102158.38
2022-10-07T09:22:42.367Z,102141.97
2022-10-07T09:27:45.103Z,102143.56
2022-10-07T09:32:50.450Z,102137.66
2022-10-07T09:38:00.359Z,102124.16
2022-10-07T09:43:10.376Z,102115.06
2022-10-07T09:48:19.968Z,102091.16
2022-10-07T09:53:25.701Z,102110.66
2022-10-07T09:58:30.705Z,102102.16
2022-10-07T10:03:35.588Z,102103.63
2022-10-07T10:08:43.171Z,102097.91
2022-10-07T10:13:51.496Z,102096.53
2022-10-07T10:18:56.058Z,102064.94
2022-10-07T10:24:00.929Z,102075.53
2022-10-07T10:29:13.703Z,102065.75
2022-10-07T10:34:29.916Z,102028.72
2022-10-07T10:39:48.525Z,102049.81
2022-10-07T10:45:08.023Z,102045.38
2022-10-07T10:50:19.162Z,102042.16
2022-10-07T10:55:36.747Z,102031.09
2022-10-07T11:00:51.257Z,102030.69
2022-10-07T11:05:56.710Z,102008.53
2022-10-07T11:11:07.035Z,102006.91
2022-10-07T11:16:14.679Z,101997.81
2022-10-07T11:21:25.821Z,101994.91
2022-10-07T11:26:37.310Z,101982.03
2022-10-07T11:31:45.386Z,101976.31
2022-10-07T11:36:58.645Z,101968.09
2022-10-07T11:42:07.952Z,101958.06
2022-10-07T11:47:16.476Z,101951.19
2022-10-07T11:52:24.234Z,101941.50
2022-10-07T11:57:32.422Z,101906.91
2022-10-07T12:02:41.732Z,101928.50
2022-10-07T12:08:02.117Z,101905.91
2022-10-07T12:13:41.304Z,101907.34
2022-10-07T12:19:23.043Z,101894.91
2022-10-07T12:24:27.517Z,101895.38
2022-10-07T12:29:45.548Z,101868.00
2022-10-07T12:34:49.411Z,101868.84
2022-10-07T12:39:52.899Z,101846.50
2022-10-07T12:44:56.451Z,101855.50
2022-10-07T12:50:04.655Z,101833.63
2022-10-07T12:55:11.402Z,101753.09
2022-10-07T13:00:16.448Z,101824.78
2022-10-07T13:05:51.769Z,101822.56
2022-10-07T13:11:15.438Z,101803.38
2022-10-07T13:16:31.618Z,101798.66
2022-10-07T13:21:38.604Z,101793.72
2022-10-07T13:26:45.872Z,101779.22
2022-10-07T13:32:04.061Z,101778.75
2022-10-07T13:37:27.043Z,101766.66
2022-10-07T13:42:30.807Z,101749.75
2022-10-07T13:47:35.091Z,101759.41
2022-10-07T13:52:43.353Z,101757.09
2022-10-07T13:57:46.293Z,101745.09
2022-10-07T14:02:50.656Z,101730.41
2022-10-07T14:07:57.069Z,101725.00
2022-10-07T14:13:03.173Z,101715.91
2022-10-07T14:18:09.196Z,101715.16
2022-10-07T14:23:23.398Z,101699.75
2022-10-07T14:28:30.857Z,101666.38
2022-10-07T14:34:00.943Z,101686.41
2022-10-07T14:39:32.408Z,101685.28
2022-10-07T14:44:35.008Z,101672.66
2022-10-07T14:49:37.523Z,101677.44
2022-10-07T14:54:41.814Z,101661.91
2022-10-07T14:59:45.352Z,101664.63
2022-10-07T15:04:48.261Z,101650.91
2022-10-07T15:09:52.301Z,101648.94
2022-10-07T15:14:54.907Z,101633.88
2022-10-07T15:19:58.165Z,101638.13
2022-10-07T15:25:03.284Z,101623.16
2022-10-07T15:30:07.111Z,101624.91
2022-10-07T15:35:10.087Z,101612.59
2022-10-07T15:40:14.516Z,101606.06
2022-10-07T15:45:17.197Z,101588.31
2022-10-07T15:50:19.908Z,101596.72
2022-10-07T15:55:23.813Z,101587.53
2022-10-07T16:00:26.824Z,101579.75
2022-10-07T16:05:31.207Z,101583.66
2022-10-07T16:10:38.144Z,101580.16
2022-10-07T16:15:42.278Z,101580.41
2022-10-07T16:20:45.460Z,101576.66
2022-10-07T16:25:49.319Z,101574.97
2022-10-07T16:30:52.130Z,101574.81
2022-10-07T16:35:54.732Z,101575.31
2022-10-07T16:40:58.600Z,101563.50
2022-10-07T16:46:02.088Z,101562.78
2022-10-07T16:51:05.611Z,101563.25
2022-10-07T16:56:10.697Z,101560.94
2022-10-07T17:01:16.497Z,101558.16
2022-10-07T17:06:21.417Z,101553.44
2022-10-07T17:11:31.208Z,101561.66
2022-10-07T17:16:36.314Z,101561.63
2022-10-07T17:21:40.775Z,101560.78
2022-10-07T17:26:45.697Z,101551.88
2022-10-07T17:31:50.559Z,101555.84
2022-10-07T17:36:54.096Z,101551.81
2022-10-07T17:41:58.364Z,101559.91
2022-10-07T17:47:03.565Z,101558.06
2022-10-07T17:52:06.353Z,101553.50
2022-10-07T17:57:10.667Z,101545.69
2022-10-07T18:02:13.251Z,101547.78
2022-10-07T18:07:16.196Z,101553.34
2022-10-07T18:12:37.725Z,101561.78
2022-10-07T18:17:40.357Z,101560.84
2022-10-07T18:22:44.012Z,101558.56
2022-10-07T18:27:48.470Z,101543.63
2022-10-07T18:32:51.648Z,101558.88
2022-10-07T18:37:54.176Z,101549.84
2022-10-07T18:42:58.072Z,101550.25
2022-10-07T18:48:00.661Z,101551.13
2022-10-07T18:53:03.520Z,101557.31
2022-10-07T18:58:07.967Z,101552.72
2022-10-07T19:03:10.619Z,101532.09
2022-10-07T19:08:13.271Z,101547.84
2022-10-07T19:13:34.844Z,101537.50
2022-10-07T19:18:38.260Z,101540.03
2022-10-07T19:23:44.433Z,101532.13
2022-10-07T19:28:49.795Z,101533.16
2022-10-07T19:33:56.081Z,101529.53
2022-10-07T19:38:59.456Z,101522.63
2022-10-07T19:44:04.371Z,101521.03
2022-10-07T19:49:09.125Z,101525.16
2022-10-07T19:54:11.987Z,101535.88
2022-10-07T19:59:16.257Z,101528.06
2022-10-07T20:04:20.960Z,101529.16
2022-10-07T20:09:24.021Z,101531.44
2022-10-07T20:14:28.103Z,101531.25
2022-10-07T20:19:30.759Z,101521.19
2022-10-07T20:24:33.524Z,101527.38
2022-10-07T20:29:56.988Z,101528.84
2022-10-07T20:34:59.569Z,101521.97
2022-10-07T20:40:20.048Z,101518.69
2022-10-07T20:45:24.029Z,101517.66
2022-10-07T20:50:26.627Z,101514.91
2022-10-07T20:55:31.981Z,101504.41
2022-10-07T21:00:39.357Z,101506.50
2022-10-07T21:05:41.942Z,101506.50
2022-10-07T21:10:44.860Z,101507.38
2022-10-07T21:15:48.720Z,101509.22
2022-10-07T21:20:56.310Z,101489.88
2022-10-07T21:26:01.396Z,101498.50
2022-10-07T21:31:08.342Z,101490.00
2022-10-07T21:36:15.718Z,101493.94
2022-10-07T21:41:20.411Z,101480.88
2022-10-07T21:46:25.738Z,101483.75
2022-10-07T21:51:29.438Z,101483.44
2022-10-07T21:56:33.491Z,101479.34
2022-10-07T22:01:38.196Z,101473.69
2022-10-07T22:06:58.577Z,101469.88
2022-10-07T22:12:01.147Z,101463.63
2022-10-07T22:17:05.122Z,101470.81
2022-10-07T22:22:08.087Z,101430.09
2022-10-07T22:27:10.703Z,101464.69
2022-10-07T22:32:14.600Z,101456.44
2022-10-07T22:37:17.118Z,101453.41
2022-10-07T22:42:19.654Z,101448.84
2022-10-07T22:47:23.521Z,101448.38
2022-10-07T22:52:26.052Z,101445.53
2022-10-07T22:57:29.376Z,101443.56
2022-10-07T23:02:33.447Z,101436.63
2022-10-07T23:07:36.068Z,101437.84
2022-10-07T23:12:38.608Z,101431.50
2022-10-07T23:17:42.494Z,101426.59
2022-10-07T23:22:45.234Z,101427.06
2022-10-07T23:27:47.995Z,101430.16
2022-10-07T23:32:51.966Z,101427.50
2022-10-07T23:37:56.561Z,101424.00
2022-10-07T23:42:59.098Z,101424.94
2022-10-07T23:48:02.977Z,101406.09
2022-10-07T23:53:05.504Z,101397.56
2022-10-07T23:58:08.163Z,101413.94
